sensor_id;sensor_type;location;lat;lon;timestamp;temperature;humidity
8593;DHT22;4334;49.982;8.398;2022-12-18T00:01:52;-7.20;99.90
8593;DHT22;4334;49.982;8.398;2022-12-18T00:04:21;-7.20;99.90
8593;DHT22;4334;49.982;8.398;2022-12-18T00:06:49;-5.70;99.90
8593;DHT22;4334;49.982;8.398;2022-12-18T00:09:15;-7.30;99.90
8593;DHT22;4334;49.982;8.398;2022-12-18T00:11:43;-4.00;99.90
8593;DHT22;4334;49.982;8.398;2022-12-18T00:14:12;-7.50;99.90
8593;DHT22;4334;49.982;8.398;2022-12-18T00:16:39;-7.50;99.90
8593;DHT22;4334;49.982;8.398;2022-12-18T00:19:06;-7.60;99.90
8593;DHT22;4334;49.982;8.398;2022-12-18T00:21:34;-7.60;99.90
8593;DHT22;4334;49.982;8.398;2022-12-18T00:24:00;-7.60;99.90
8593;DHT22;4334;49.982;8.398;2022-12-18T00:26:29;-7.60;99.90
8593;DHT22;4334;49.982;8.398;2022-12-18T00:28:59;-5.60;99.90
8593;DHT22;4334;49.982;8.398;2022-12-18T00:31:27;-7.50;99.90
8593;DHT22;4334;49.982;8.398;2022-12-18T00:33:54;-7.70;99.90
8593;DHT22;4334;49.982;8.398;2022-12-18T00:36:23;-7.70;99.90
8593;DHT22;4334;49.982;8.398;2022-12-18T00:38:50;-7.60;99.90
8593;DHT22;4334;49.982;8.398;2022-12-18T00:41:17;-6.70;99.90
8593;DHT22;4334;49.982;8.398;2022-12-18T00:44:06;-7.60;99.90
8593;DHT22;4334;49.982;8.398;2022-12-18T00:46:34;-7.70;99.90
8593;DHT22;4334;49.982;8.398;2022-12-18T00:49:01;-7.60;99.90
8593;DHT22;4334;49.982;8.398;2022-12-18T00:51:28;-7.60;99.90
8593;DHT22;4334;49.982;8.398;2022-12-18T00:53:55;-7.60;99.90
8593;DHT22;4334;49.982;8.398;2022-12-18T00:56:22;-6.30;99.90
8593;DHT22;4334;49.982;8.398;2022-12-18T00:58:49;-7.60;99.90
8593;DHT22;4334;49.982;8.398;2022-12-18T01:01:16;-7.60;99.90
8593;DHT22;4334;49.982;8.398;2022-12-18T01:03:44;-7.60;99.90
8593;DHT22;4334;49.982;8.398;2022-12-18T01:06:13;-4.70;99.90
8593;DHT22;4334;49.982;8.398;2022-12-18T01:08:41;-5.70;99.90
8593;DHT22;4334;49.982;8.398;2022-12-18T01:11:09;-7.60;99.90
8593;DHT22;4334;49.982;8.398;2022-12-18T01:13:37;-7.60;99.90
8593;DHT22;4334;49.982;8.398;2022-12-18T01:16:05;-7.60;99.90
8593;DHT22;4334;49.982;8.398;2022-12-18T01:18:32;-4.30;99.90
8593;DHT22;4334;49.982;8.398;2022-12-18T01:21:00;-7.70;99.90
8593;DHT22;4334;49.982;8.398;2022-12-18T01:23:27;-7.60;99.90
8593;DHT22;4334;49.982;8.398;2022-12-18T01:25:54;-7.60;99.90
8593;DHT22;4334;49.982;8.398;2022-12-18T01:28:21;-7.60;99.90
8593;DHT22;4334;49.982;8.398;2022-12-18T01:30:47;-7.60;99.90
8593;DHT22;4334;49.982;8.398;2022-12-18T01:33:14;-7.50;99.90
8593;DHT22;4334;49.982;8.398;2022-12-18T01:35:41;-7.70;99.90
8593;DHT22;4334;49.982;8.398;2022-12-18T01:38:09;-7.60;99.90
8593;DHT22;4334;49.982;8.398;2022-12-18T01:40:36;-6.20;99.90
8593;DHT22;4334;49.982;8.398;2022-12-18T01:43:03;-7.60;99.90
8593;DHT22;4334;49.982;8.398;2022-12-18T01:45:31;-7.60;99.90
8593;DHT22;4334;49.982;8.398;2022-12-18T01:48:00;-7.60;99.90
8593;DHT22;4334;49.982;8.398;2022-12-18T01:50:31;-7.60;99.90
8593;DHT22;4334;49.982;8.398;2022-12-18T01:53:02;-7.60;99.90
8593;DHT22;4334;49.982;8.398;2022-12-18T01:55:36;-7.60;99.90
8593;DHT22;4334;49.982;8.398;2022-12-18T01:58:04;-7.60;99.90
8593;DHT22;4334;49.982;8.398;2022-12-18T02:00:31;-7.70;99.90
8593;DHT22;4334;49.982;8.398;2022-12-18T02:02:58;-4.80;99.90
8593;DHT22;4334;49.982;8.398;2022-12-18T02:05:34;-7.70;99.90
8593;DHT22;4334;49.982;8.398;2022-12-18T02:08:09;-7.90;99.90
8593;DHT22;4334;49.982;8.398;2022-12-18T02:10:43;-7.50;99.90
8593;DHT22;4334;49.982;8.398;2022-12-18T02:13:14;-7.80;99.90
8593;DHT22;4334;49.982;8.398;2022-12-18T02:15:53;-7.90;99.90
8593;DHT22;4334;49.982;8.398;2022-12-18T02:18:25;-7.90;99.90
8593;DHT22;4334;49.982;8.398;2022-12-18T02:20:56;-7.90;99.90
8593;DHT22;4334;49.982;8.398;2022-12-18T02:23:45;-5.40;99.90
8593;DHT22;4334;49.982;8.398;2022-12-18T02:26:19;-8.00;99.90
8593;DHT22;4334;49.982;8.398;2022-12-18T02:28:51;-8.00;99.90
8593;DHT22;4334;49.982;8.398;2022-12-18T02:31:22;-8.10;99.90
8593;DHT22;4334;49.982;8.398;2022-12-18T02:33:50;-8.10;99.90
8593;DHT22;4334;49.982;8.398;2022-12-18T02:36:18;-8.00;99.90
8593;DHT22;4334;49.982;8.398;2022-12-18T02:38:47;-8.10;99.90
8593;DHT22;4334;49.982;8.398;2022-12-18T02:41:16;-8.10;99.90
8593;DHT22;4334;49.982;8.398;2022-12-18T02:43:48;-8.10;99.90
8593;DHT22;4334;49.982;8.398;2022-12-18T02:46:27;-8.10;99.90
8593;DHT22;4334;49.982;8.398;2022-12-18T02:49:01;-8.10;99.90
8593;DHT22;4334;49.982;8.398;2022-12-18T02:51:32;-8.10;99.90
8593;DHT22;4334;49.982;8.398;2022-12-18T02:54:09;-8.00;99.90
8593;DHT22;4334;49.982;8.398;2022-12-18T02:56:42;-8.00;99.90
8593;DHT22;4334;49.982;8.398;2022-12-18T02:59:14;-6.90;99.90
8593;DHT22;4334;49.982;8.398;2022-12-18T03:01:50;-8.20;99.90
8593;DHT22;4334;49.982;8.398;2022-12-18T03:04:22;-7.50;99.90
8593;DHT22;4334;49.982;8.398;2022-12-18T03:06:55;-6.40;99.90
8593;DHT22;4334;49.982;8.398;2022-12-18T03:09:28;-8.40;99.90
8593;DHT22;4334;49.982;8.398;2022-12-18T03:12:04;-8.30;99.90
8593;DHT22;4334;49.982;8.398;2022-12-18T03:14:55;-8.00;99.90
8593;DHT22;4334;49.982;8.398;2022-12-18T03:17:27;-8.10;99.90
8593;DHT22;4334;49.982;8.398;2022-12-18T03:19:56;-5.70;99.90
8593;DHT22;4334;49.982;8.398;2022-12-18T03:22:26;-4.40;99.90
8593;DHT22;4334;49.982;8.398;2022-12-18T03:24:54;-8.10;99.90
8593;DHT22;4334;49.982;8.398;2022-12-18T03:27:25;-8.10;99.90
8593;DHT22;4334;49.982;8.398;2022-12-18T03:29:55;-4.90;99.90
8593;DHT22;4334;49.982;8.398;2022-12-18T03:32:27;-8.00;99.90
8593;DHT22;4334;49.982;8.398;2022-12-18T03:34:57;-7.20;99.90
8593;DHT22;4334;49.982;8.398;2022-12-18T03:37:25;-8.10;99.90
8593;DHT22;4334;49.982;8.398;2022-12-18T03:39:51;-8.10;99.90
8593;DHT22;4334;49.982;8.398;2022-12-18T03:42:25;-8.00;99.90
8593;DHT22;4334;49.982;8.398;2022-12-18T03:44:56;-8.00;99.90
8593;DHT22;4334;49.982;8.398;2022-12-18T03:47:27;-7.90;99.90
8593;DHT22;4334;49.982;8.398;2022-12-18T03:49:59;-7.90;99.90
8593;DHT22;4334;49.982;8.398;2022-12-18T03:52:32;-7.80;99.90
8593;DHT22;4334;49.982;8.398;2022-12-18T03:55:03;-7.70;99.90
8593;DHT22;4334;49.982;8.398;2022-12-18T03:57:33;-7.70;99.90
8593;DHT22;4334;49.982;8.398;2022-12-18T04:00:03;-7.70;99.90
8593;DHT22;4334;49.982;8.398;2022-12-18T04:02:31;-7.70;99.90
8593;DHT22;4334;49.982;8.398;2022-12-18T04:05:02;-7.70;99.90
8593;DHT22;4334;49.982;8.398;2022-12-18T04:07:30;-7.70;99.90
8593;DHT22;4334;49.982;8.398;2022-12-18T04:09:59;-7.80;99.90
8593;DHT22;4334;49.982;8.398;2022-12-18T04:12:29;-7.80;99.90
8593;DHT22;4334;49.982;8.398;2022-12-18T04:14:57;-7.80;99.90
8593;DHT22;4334;49.982;8.398;2022-12-18T04:17:24;-7.70;99.90
8593;DHT22;4334;49.982;8.398;2022-12-18T04:19:51;-7.80;99.90
8593;DHT22;4334;49.982;8.398;2022-12-18T04:22:17;-7.80;99.90
8593;DHT22;4334;49.982;8.398;2022-12-18T04:24:44;-7.80;99.90
8593;DHT22;4334;49.982;8.398;2022-12-18T04:27:11;-7.70;99.90
8593;DHT22;4334;49.982;8.398;2022-12-18T04:29:38;-7.80;99.90
8593;DHT22;4334;49.982;8.398;2022-12-18T04:32:06;-7.80;99.90
8593;DHT22;4334;49.982;8.398;2022-12-18T04:34:33;-7.80;99.90
8593;DHT22;4334;49.982;8.398;2022-12-18T04:37:00;-7.70;99.90
8593;DHT22;4334;49.982;8.398;2022-12-18T04:39:27;-6.50;99.90
8593;DHT22;4334;49.982;8.398;2022-12-18T04:41:53;-5.00;99.90
8593;DHT22;4334;49.982;8.398;2022-12-18T04:44:20;-7.70;99.90
8593;DHT22;4334;49.982;8.398;2022-12-18T04:46:47;-6.50;99.90
8593;DHT22;4334;49.982;8.398;2022-12-18T04:49:15;-7.60;99.90
8593;DHT22;4334;49.982;8.398;2022-12-18T04:51:42;-7.00;99.90
8593;DHT22;4334;49.982;8.398;2022-12-18T04:54:08;-7.50;99.90
8593;DHT22;4334;49.982;8.398;2022-12-18T04:56:35;-7.40;99.90
8593;DHT22;4334;49.982;8.398;2022-12-18T04:59:02;-7.40;99.90
8593;DHT22;4334;49.982;8.398;2022-12-18T05:01:29;-7.40;99.90
8593;DHT22;4334;49.982;8.398;2022-12-18T05:03:56;-7.30;99.90
8593;DHT22;4334;49.982;8.398;2022-12-18T05:06:24;-7.30;99.90
8593;DHT22;4334;49.982;8.398;2022-12-18T05:08:50;-7.30;99.90
8593;DHT22;4334;49.982;8.398;2022-12-18T05:11:17;-7.30;99.90
8593;DHT22;4334;49.982;8.398;2022-12-18T05:13:45;-7.30;99.90
8593;DHT22;4334;49.982;8.398;2022-12-18T05:16:12;-7.20;99.90
8593;DHT22;4334;49.982;8.398;2022-12-18T05:18:39;-7.20;99.90
8593;DHT22;4334;49.982;8.398;2022-12-18T05:21:06;-6.30;99.90
8593;DHT22;4334;49.982;8.398;2022-12-18T05:23:34;-7.30;99.90
8593;DHT22;4334;49.982;8.398;2022-12-18T05:26:03;-6.70;99.90
8593;DHT22;4334;49.982;8.398;2022-12-18T05:28:31;-5.10;99.90
8593;DHT22;4334;49.982;8.398;2022-12-18T05:31:00;-7.40;99.90
8593;DHT22;4334;49.982;8.398;2022-12-18T05:33:30;-7.50;99.90
8593;DHT22;4334;49.982;8.398;2022-12-18T05:35:59;-7.40;99.90
8593;DHT22;4334;49.982;8.398;2022-12-18T05:38:27;-5.30;99.90
8593;DHT22;4334;49.982;8.398;2022-12-18T05:40:56;-7.50;99.90
8593;DHT22;4334;49.982;8.398;2022-12-18T05:43:25;-7.60;99.90
8593;DHT22;4334;49.982;8.398;2022-12-18T05:45:52;-6.30;99.90
8593;DHT22;4334;49.982;8.398;2022-12-18T05:48:19;-7.60;99.90
8593;DHT22;4334;49.982;8.398;2022-12-18T05:50:47;-7.40;99.90
8593;DHT22;4334;49.982;8.398;2022-12-18T05:53:15;-4.70;99.90
8593;DHT22;4334;49.982;8.398;2022-12-18T05:55:43;-7.20;99.90
8593;DHT22;4334;49.982;8.398;2022-12-18T05:58:13;-7.20;99.90
8593;DHT22;4334;49.982;8.398;2022-12-18T06:00:42;-3.80;99.90
8593;DHT22;4334;49.982;8.398;2022-12-18T06:03:10;-6.20;99.90
8593;DHT22;4334;49.982;8.398;2022-12-18T06:05:38;-6.70;99.90
8593;DHT22;4334;49.982;8.398;2022-12-18T06:08:05;-5.70;99.90
8593;DHT22;4334;49.982;8.398;2022-12-18T06:10:32;-7.30;99.90
8593;DHT22;4334;49.982;8.398;2022-12-18T06:12:59;-7.00;99.90
8593;DHT22;4334;49.982;8.398;2022-12-18T06:15:27;-7.50;99.90
8593;DHT22;4334;49.982;8.398;2022-12-18T06:17:54;-7.50;99.90
8593;DHT22;4334;49.982;8.398;2022-12-18T06:20:21;-7.50;99.90
8593;DHT22;4334;49.982;8.398;2022-12-18T06:22:48;-7.40;99.90
8593;DHT22;4334;49.982;8.398;2022-12-18T06:25:15;-7.30;99.90
8593;DHT22;4334;49.982;8.398;2022-12-18T06:27:42;-5.70;99.90
8593;DHT22;4334;49.982;8.398;2022-12-18T06:30:10;-7.30;99.90
8593;DHT22;4334;49.982;8.398;2022-12-18T06:32:39;-7.30;99.90
8593;DHT22;4334;49.982;8.398;2022-12-18T06:35:06;-7.20;99.90
8593;DHT22;4334;49.982;8.398;2022-12-18T06:37:33;-7.30;99.90
8593;DHT22;4334;49.982;8.398;2022-12-18T06:40:00;-7.30;99.90
8593;DHT22;4334;49.982;8.398;2022-12-18T06:42:28;-7.30;99.90
8593;DHT22;4334;49.982;8.398;2022-12-18T06:44:55;-7.40;99.90
8593;DHT22;4334;49.982;8.398;2022-12-18T06:47:21;-7.30;99.90
8593;DHT22;4334;49.982;8.398;2022-12-18T06:49:49;-7.30;99.90
8593;DHT22;4334;49.982;8.398;2022-12-18T06:52:16;-7.30;99.90
8593;DHT22;4334;49.982;8.398;2022-12-18T06:54:43;-7.30;99.90
8593;DHT22;4334;49.982;8.398;2022-12-18T06:57:10;-7.40;99.90
8593;DHT22;4334;49.982;8.398;2022-12-18T06:59:37;-3.80;99.90
8593;DHT22;4334;49.982;8.398;2022-12-18T07:02:03;-7.00;99.90
8593;DHT22;4334;49.982;8.398;2022-12-18T07:04:31;-7.50;99.90
8593;DHT22;4334;49.982;8.398;2022-12-18T07:06:59;-7.60;99.90
8593;DHT22;4334;49.982;8.398;2022-12-18T07:09:26;-7.50;99.90
8593;DHT22;4334;49.982;8.398;2022-12-18T07:11:52;-5.50;99.90
8593;DHT22;4334;49.982;8.398;2022-12-18T07:14:19;-7.60;99.90
8593;DHT22;4334;49.982;8.398;2022-12-18T07:16:46;-7.60;99.90
8593;DHT22;4334;49.982;8.398;2022-12-18T07:19:13;-7.60;99.90
8593;DHT22;4334;49.982;8.398;2022-12-18T07:21:39;-7.50;99.90
8593;DHT22;4334;49.982;8.398;2022-12-18T07:24:08;-5.60;99.90
8593;DHT22;4334;49.982;8.398;2022-12-18T07:26:35;-7.60;99.90
8593;DHT22;4334;49.982;8.398;2022-12-18T07:29:01;-7.80;99.90
8593;DHT22;4334;49.982;8.398;2022-12-18T07:31:28;-7.10;99.90
8593;DHT22;4334;49.982;8.398;2022-12-18T07:33:55;-8.10;99.90
8593;DHT22;4334;49.982;8.398;2022-12-18T07:36:21;-5.90;99.90
8593;DHT22;4334;49.982;8.398;2022-12-18T07:38:49;-7.70;99.90
8593;DHT22;4334;49.982;8.398;2022-12-18T07:41:18;-6.20;99.90
8593;DHT22;4334;49.982;8.398;2022-12-18T07:43:45;-8.00;99.90
8593;DHT22;4334;49.982;8.398;2022-12-18T07:46:13;-8.00;99.90
8593;DHT22;4334;49.982;8.398;2022-12-18T07:48:41;-8.00;99.90
8593;DHT22;4334;49.982;8.398;2022-12-18T07:51:08;-7.80;99.90
8593;DHT22;4334;49.982;8.398;2022-12-18T07:53:38;-5.90;99.90
8593;DHT22;4334;49.982;8.398;2022-12-18T07:56:07;-4.30;99.90
8593;DHT22;4334;49.982;8.398;2022-12-18T07:58:37;-7.40;99.90
8593;DHT22;4334;49.982;8.398;2022-12-18T08:01:04;-7.30;99.90
8593;DHT22;4334;49.982;8.398;2022-12-18T08:03:32;-7.10;99.90
8593;DHT22;4334;49.982;8.398;2022-12-18T08:06:00;-7.20;99.90
8593;DHT22;4334;49.982;8.398;2022-12-18T08:08:27;-7.20;99.90
8593;DHT22;4334;49.982;8.398;2022-12-18T08:10:54;-7.20;99.90
8593;DHT22;4334;49.982;8.398;2022-12-18T08:13:21;-3.60;99.90
8593;DHT22;4334;49.982;8.398;2022-12-18T08:15:57;-4.70;99.90
8593;DHT22;4334;49.982;8.398;2022-12-18T08:18:24;-6.50;99.90
8593;DHT22;4334;49.982;8.398;2022-12-18T08:20:51;-6.40;99.90
8593;DHT22;4334;49.982;8.398;2022-12-18T08:23:18;-3.70;99.90
8593;DHT22;4334;49.982;8.398;2022-12-18T08:25:44;-6.10;99.90
8593;DHT22;4334;49.982;8.398;2022-12-18T08:28:11;-6.00;99.90
8593;DHT22;4334;49.982;8.398;2022-12-18T08:30:38;-6.00;99.90
8593;DHT22;4334;49.982;8.398;2022-12-18T08:33:06;-5.50;99.90
8593;DHT22;4334;49.982;8.398;2022-12-18T08:35:35;-5.00;99.90
8593;DHT22;4334;49.982;8.398;2022-12-18T08:38:01;-5.20;99.90
8593;DHT22;4334;49.982;8.398;2022-12-18T08:40:28;-5.30;99.90
8593;DHT22;4334;49.982;8.398;2022-12-18T08:42:55;-5.00;99.90
8593;DHT22;4334;49.982;8.398;2022-12-18T08:45:39;-2.80;99.90
8593;DHT22;4334;49.982;8.398;2022-12-18T08:48:07;-4.10;99.90
8593;DHT22;4334;49.982;8.398;2022-12-18T08:50:34;-4.30;99.90
8593;DHT22;4334;49.982;8.398;2022-12-18T08:53:01;-4.20;99.90
8593;DHT22;4334;49.982;8.398;2022-12-18T08:55:28;-3.40;99.90
8593;DHT22;4334;49.982;8.398;2022-12-18T08:57:55;-4.20;99.90
8593;DHT22;4334;49.982;8.398;2022-12-18T09:00:22;-3.90;99.90
8593;DHT22;4334;49.982;8.398;2022-12-18T09:02:48;-3.40;99.90
8593;DHT22;4334;49.982;8.398;2022-12-18T09:05:16;-3.20;99.90
8593;DHT22;4334;49.982;8.398;2022-12-18T09:07:43;-3.30;99.90
8593;DHT22;4334;49.982;8.398;2022-12-18T09:10:10;-3.40;99.90
8593;DHT22;4334;49.982;8.398;2022-12-18T09:12:36;-3.10;99.90
8593;DHT22;4334;49.982;8.398;2022-12-18T09:15:04;-2.80;99.90
8593;DHT22;4334;49.982;8.398;2022-12-18T09:17:31;-2.20;99.90
8593;DHT22;4334;49.982;8.398;2022-12-18T09:19:58;-0.70;99.90
8593;DHT22;4334;49.982;8.398;2022-12-18T09:22:26;-2.30;99.90
8593;DHT22;4334;49.982;8.398;2022-12-18T09:24:53;-2.30;99.90
8593;DHT22;4334;49.982;8.398;2022-12-18T09:27:19;-2.30;99.90
8593;DHT22;4334;49.982;8.398;2022-12-18T09:29:46;-2.20;99.90
8593;DHT22;4334;49.982;8.398;2022-12-18T09:32:14;-1.90;99.90
8593;DHT22;4334;49.982;8.398;2022-12-18T09:34:41;-1.30;99.90
8593;DHT22;4334;49.982;8.398;2022-12-18T09:37:07;-0.90;99.90
8593;DHT22;4334;49.982;8.398;2022-12-18T09:39:35;-0.90;99.90
8593;DHT22;4334;49.982;8.398;2022-12-18T09:42:02;-0.90;99.90
8593;DHT22;4334;49.982;8.398;2022-12-18T09:44:32;-0.90;99.90
8593;DHT22;4334;49.982;8.398;2022-12-18T09:47:09;-1.10;99.90
8593;DHT22;4334;49.982;8.398;2022-12-18T09:49:42;-0.60;99.90
8593;DHT22;4334;49.982;8.398;2022-12-18T09:52:14;-0.50;99.90
8593;DHT22;4334;49.982;8.398;2022-12-18T09:54:46;-0.60;99.90
8593;DHT22;4334;49.982;8.398;2022-12-18T09:57:15;-0.90;99.90
8593;DHT22;4334;49.982;8.398;2022-12-18T09:59:47;-1.50;99.90
8593;DHT22;4334;49.982;8.398;2022-12-18T10:02:18;-1.80;99.90
8593;DHT22;4334;49.982;8.398;2022-12-18T10:04:52;-0.70;99.90
8593;DHT22;4334;49.982;8.398;2022-12-18T10:07:27;-2.30;99.90
8593;DHT22;4334;49.982;8.398;2022-12-18T10:10:03;-2.30;99.90
8593;DHT22;4334;49.982;8.398;2022-12-18T10:12:36;-2.00;99.90
8593;DHT22;4334;49.982;8.398;2022-12-18T10:15:10;-1.40;99.90
8593;DHT22;4334;49.982;8.398;2022-12-18T10:17:45;-1.10;99.90
8593;DHT22;4334;49.982;8.398;2022-12-18T10:20:24;-1.00;99.90
8593;DHT22;4334;49.982;8.398;2022-12-18T10:22:59;-0.80;99.90
8593;DHT22;4334;49.982;8.398;2022-12-18T10:25:34;-1.00;99.90
8593;DHT22;4334;49.982;8.398;2022-12-18T10:28:09;-1.30;99.90
8593;DHT22;4334;49.982;8.398;2022-12-18T10:30:38;-1.20;99.90
8593;DHT22;4334;49.982;8.398;2022-12-18T10:33:05;-1.20;99.90
8593;DHT22;4334;49.982;8.398;2022-12-18T10:35:32;-1.30;99.90
8593;DHT22;4334;49.982;8.398;2022-12-18T10:38:06;-1.60;99.90
8593;DHT22;4334;49.982;8.398;2022-12-18T10:40:48;-1.70;99.90
8593;DHT22;4334;49.982;8.398;2022-12-18T10:43:16;-2.00;99.90
8593;DHT22;4334;49.982;8.398;2022-12-18T10:45:59;-2.10;99.90
8593;DHT22;4334;49.982;8.398;2022-12-18T10:48:27;-2.30;99.90
8593;DHT22;4334;49.982;8.398;2022-12-18T10:50:54;-0.90;99.90
8593;DHT22;4334;49.982;8.398;2022-12-18T10:53:23;-1.80;99.90
8593;DHT22;4334;49.982;8.398;2022-12-18T10:55:55;-1.80;99.90
8593;DHT22;4334;49.982;8.398;2022-12-18T10:58:24;-1.80;99.90
8593;DHT22;4334;49.982;8.398;2022-12-18T11:01:10;-1.70;99.90
8593;DHT22;4334;49.982;8.398;2022-12-18T11:03:39;-1.60;99.90
8593;DHT22;4334;49.982;8.398;2022-12-18T11:06:08;-1.10;99.90
8593;DHT22;4334;49.982;8.398;2022-12-18T11:08:36;-0.80;99.90
8593;DHT22;4334;49.982;8.398;2022-12-18T11:11:15;-0.40;99.90
8593;DHT22;4334;49.982;8.398;2022-12-18T11:13:58;-0.10;99.90
8593;DHT22;4334;49.982;8.398;2022-12-18T11:16:26;-0.40;99.90
8593;DHT22;4334;49.982;8.398;2022-12-18T11:18:54;-0.40;99.90
8593;DHT22;4334;49.982;8.398;2022-12-18T11:21:21;-0.10;99.90
8593;DHT22;4334;49.982;8.398;2022-12-18T11:23:50;-0.40;99.90
8593;DHT22;4334;49.982;8.398;2022-12-18T11:26:19;-0.20;99.90
8593;DHT22;4334;49.982;8.398;2022-12-18T11:28:49;-0.30;99.90
8593;DHT22;4334;49.982;8.398;2022-12-18T11:31:23;-0.80;99.90
8593;DHT22;4334;49.982;8.398;2022-12-18T11:34:00;-0.90;99.90
8593;DHT22;4334;49.982;8.398;2022-12-18T11:36:31;-0.40;99.90
8593;DHT22;4334;49.982;8.398;2022-12-18T11:39:03;-0.30;99.90
8593;DHT22;4334;49.982;8.398;2022-12-18T11:41:37;-0.90;99.90
8593;DHT22;4334;49.982;8.398;2022-12-18T11:44:27;-1.00;99.90
8593;DHT22;4334;49.982;8.398;2022-12-18T11:46:58;-1.50;99.90
8593;DHT22;4334;49.982;8.398;2022-12-18T11:49:29;0.60;99.90
8593;DHT22;4334;49.982;8.398;2022-12-18T11:52:02;-1.70;99.90
8593;DHT22;4334;49.982;8.398;2022-12-18T11:54:30;-2.10;99.90
8593;DHT22;4334;49.982;8.398;2022-12-18T11:57:07;-1.90;99.90
8593;DHT22;4334;49.982;8.398;2022-12-18T11:59:43;-2.30;99.90
8593;DHT22;4334;49.982;8.398;2022-12-18T12:02:24;-1.20;99.90
8593;DHT22;4334;49.982;8.398;2022-12-18T12:05:12;-2.10;99.90
8593;DHT22;4334;49.982;8.398;2022-12-18T12:07:47;-2.00;99.90
8593;DHT22;4334;49.982;8.398;2022-12-18T12:10:31;-2.00;99.90
8593;DHT22;4334;49.982;8.398;2022-12-18T12:13:20;-2.10;99.90
8593;DHT22;4334;49.982;8.398;2022-12-18T12:15:56;-2.20;99.90
8593;DHT22;4334;49.982;8.398;2022-12-18T12:18:33;-2.30;99.90
8593;DHT22;4334;49.982;8.398;2022-12-18T12:21:07;-2.10;99.90
8593;DHT22;4334;49.982;8.398;2022-12-18T12:23:41;-1.90;99.90
8593;DHT22;4334;49.982;8.398;2022-12-18T12:26:17;-2.00;99.90
8593;DHT22;4334;49.982;8.398;2022-12-18T12:29:11;-2.10;99.90
8593;DHT22;4334;49.982;8.398;2022-12-18T12:31:53;-1.90;99.90
8593;DHT22;4334;49.982;8.398;2022-12-18T12:34:28;-2.20;99.90
8593;DHT22;4334;49.982;8.398;2022-12-18T12:37:07;-2.40;99.90
8593;DHT22;4334;49.982;8.398;2022-12-18T12:39:39;-2.20;99.90
8593;DHT22;4334;49.982;8.398;2022-12-18T12:42:18;0.80;99.90
8593;DHT22;4334;49.982;8.398;2022-12-18T12:45:05;-2.40;99.90
8593;DHT22;4334;49.982;8.398;2022-12-18T12:47:36;-2.70;99.90
8593;DHT22;4334;49.982;8.398;2022-12-18T12:50:11;-2.70;99.90
8593;DHT22;4334;49.982;8.398;2022-12-18T12:52:42;-2.60;99.90
8593;DHT22;4334;49.982;8.398;2022-12-18T12:55:16;-2.80;99.90
8593;DHT22;4334;49.982;8.398;2022-12-18T12:57:46;-2.60;99.90
8593;DHT22;4334;49.982;8.398;2022-12-18T13:00:18;-2.60;99.90
8593;DHT22;4334;49.982;8.398;2022-12-18T13:02:50;-2.50;99.90
8593;DHT22;4334;49.982;8.398;2022-12-18T13:05:23;-2.60;99.90
8593;DHT22;4334;49.982;8.398;2022-12-18T13:07:55;-2.80;99.90
8593;DHT22;4334;49.982;8.398;2022-12-18T13:10:31;-2.80;99.90
8593;DHT22;4334;49.982;8.398;2022-12-18T13:13:00;-2.70;99.90
8593;DHT22;4334;49.982;8.398;2022-12-18T13:15:32;-2.80;99.90
8593;DHT22;4334;49.982;8.398;2022-12-18T13:18:11;-2.80;99.90
8593;DHT22;4334;49.982;8.398;2022-12-18T13:20:41;-2.80;99.90
8593;DHT22;4334;49.982;8.398;2022-12-18T13:23:33;0.20;99.90
8593;DHT22;4334;49.982;8.398;2022-12-18T13:29:06;-2.70;99.90
8593;DHT22;4334;49.982;8.398;2022-12-18T13:34:28;1.30;99.90
8593;DHT22;4334;49.982;8.398;2022-12-18T13:36:57;-2.70;99.90
8593;DHT22;4334;49.982;8.398;2022-12-18T13:39:43;-2.90;99.90
8593;DHT22;4334;49.982;8.398;2022-12-18T13:42:36;-2.80;99.90
8593;DHT22;4334;49.982;8.398;2022-12-18T13:46:00;-2.60;99.90
8593;DHT22;4334;49.982;8.398;2022-12-18T13:48:30;-1.10;99.90
8593;DHT22;4334;49.982;8.398;2022-12-18T13:51:01;-2.70;99.90
8593;DHT22;4334;49.982;8.398;2022-12-18T13:53:32;-2.60;99.90
8593;DHT22;4334;49.982;8.398;2022-12-18T13:56:00;-2.60;99.90
8593;DHT22;4334;49.982;8.398;2022-12-18T13:58:28;-2.70;99.90
8593;DHT22;4334;49.982;8.398;2022-12-18T14:00:55;-2.70;99.90
8593;DHT22;4334;49.982;8.398;2022-12-18T14:03:25;-2.70;99.90
8593;DHT22;4334;49.982;8.398;2022-12-18T14:05:55;-2.80;99.90
8593;DHT22;4334;49.982;8.398;2022-12-18T14:08:23;-2.70;99.90
8593;DHT22;4334;49.982;8.398;2022-12-18T14:10:51;-2.80;99.90
8593;DHT22;4334;49.982;8.398;2022-12-18T14:13:26;-2.80;99.90
8593;DHT22;4334;49.982;8.398;2022-12-18T14:15:53;-2.80;99.90
8593;DHT22;4334;49.982;8.398;2022-12-18T14:18:25;-2.90;99.90
8593;DHT22;4334;49.982;8.398;2022-12-18T14:20:56;-2.90;99.90
8593;DHT22;4334;49.982;8.398;2022-12-18T14:23:32;-2.80;99.90
8593;DHT22;4334;49.982;8.398;2022-12-18T14:26:00;-2.90;99.90
8593;DHT22;4334;49.982;8.398;2022-12-18T14:28:27;-1.50;99.90
8593;DHT22;4334;49.982;8.398;2022-12-18T14:30:54;-2.90;99.90
8593;DHT22;4334;49.982;8.398;2022-12-18T14:33:24;-1.40;99.90
8593;DHT22;4334;49.982;8.398;2022-12-18T14:35:57;-3.00;99.90
8593;DHT22;4334;49.982;8.398;2022-12-18T14:38:32;-4.00;99.90
8593;DHT22;4334;49.982;8.398;2022-12-18T14:41:00;-3.10;99.90
8593;DHT22;4334;49.982;8.398;2022-12-18T14:43:28;-3.10;99.90
8593;DHT22;4334;49.982;8.398;2022-12-18T14:45:56;-3.10;99.90
8593;DHT22;4334;49.982;8.398;2022-12-18T14:48:35;-3.20;99.90
8593;DHT22;4334;49.982;8.398;2022-12-18T14:51:06;-1.70;99.90
8593;DHT22;4334;49.982;8.398;2022-12-18T14:53:35;-3.20;99.90
8593;DHT22;4334;49.982;8.398;2022-12-18T14:56:03;-3.20;99.90
8593;DHT22;4334;49.982;8.398;2022-12-18T14:58:37;-2.20;99.90
8593;DHT22;4334;49.982;8.398;2022-12-18T15:01:04;-3.20;99.90
8593;DHT22;4334;49.982;8.398;2022-12-18T15:03:31;-2.60;99.90
8593;DHT22;4334;49.982;8.398;2022-12-18T15:06:16;-3.30;99.90
8593;DHT22;4334;49.982;8.398;2022-12-18T15:08:44;-3.30;99.90
8593;DHT22;4334;49.982;8.398;2022-12-18T15:11:26;-3.30;99.90
8593;DHT22;4334;49.982;8.398;2022-12-18T15:13:53;-0.50;99.90
8593;DHT22;4334;49.982;8.398;2022-12-18T15:16:20;-3.40;99.90
8593;DHT22;4334;49.982;8.398;2022-12-18T15:18:47;-3.40;99.90
8593;DHT22;4334;49.982;8.398;2022-12-18T15:21:18;-3.40;99.90
8593;DHT22;4334;49.982;8.398;2022-12-18T15:23:47;-2.90;99.90
8593;DHT22;4334;49.982;8.398;2022-12-18T15:26:16;-3.40;99.90
8593;DHT22;4334;49.982;8.398;2022-12-18T15:28:45;-0.50;99.90
8593;DHT22;4334;49.982;8.398;2022-12-18T15:31:24;-3.50;99.90
8593;DHT22;4334;49.982;8.398;2022-12-18T15:34:08;-3.50;99.90
8593;DHT22;4334;49.982;8.398;2022-12-18T15:36:37;-3.50;99.90
8593;DHT22;4334;49.982;8.398;2022-12-18T15:39:04;-2.60;99.90
8593;DHT22;4334;49.982;8.398;2022-12-18T15:41:32;-3.50;99.90
8593;DHT22;4334;49.982;8.398;2022-12-18T15:43:59;-3.50;99.90
8593;DHT22;4334;49.982;8.398;2022-12-18T15:46:25;-3.00;99.90
8593;DHT22;4334;49.982;8.398;2022-12-18T15:48:54;-3.50;99.90
8593;DHT22;4334;49.982;8.398;2022-12-18T15:51:23;-3.50;99.90
8593;DHT22;4334;49.982;8.398;2022-12-18T15:53:54;-2.80;99.90
8593;DHT22;4334;49.982;8.398;2022-12-18T15:56:22;-3.60;99.90
8593;DHT22;4334;49.982;8.398;2022-12-18T15:59:11;-3.60;99.90
8593;DHT22;4334;49.982;8.398;2022-12-18T16:01:40;-3.50;99.90
8593;DHT22;4334;49.982;8.398;2022-12-18T16:04:09;-3.50;99.90
8593;DHT22;4334;49.982;8.398;2022-12-18T16:06:37;-3.50;99.90
8593;DHT22;4334;49.982;8.398;2022-12-18T16:09:05;-2.50;99.90
8593;DHT22;4334;49.982;8.398;2022-12-18T16:11:34;-3.50;99.90
8593;DHT22;4334;49.982;8.398;2022-12-18T16:14:06;-3.50;99.90
8593;DHT22;4334;49.982;8.398;2022-12-18T16:16:33;-3.50;99.90
8593;DHT22;4334;49.982;8.398;2022-12-18T16:18:59;-3.50;99.90
8593;DHT22;4334;49.982;8.398;2022-12-18T16:21:26;-3.50;99.90
8593;DHT22;4334;49.982;8.398;2022-12-18T16:23:53;-3.50;99.90
8593;DHT22;4334;49.982;8.398;2022-12-18T16:26:21;-3.50;99.90
8593;DHT22;4334;49.982;8.398;2022-12-18T16:28:48;-3.50;99.90